sensor_id;sensor_type;location;lat;lon;timestamp;temperature;humidity
21811;DHT22;11067;48.788;9.208;2023-06-26T06:06:49;24.50;99.90
21811;DHT22;11067;48.788;9.208;2023-06-26T06:09:15;24.60;99.90
21811;DHT22;11067;48.788;9.208;2023-06-26T06:21:24;24.40;99.90
21811;DHT22;11067;48.788;9.208;2023-06-26T06:23:49;25.40;99.90
21811;DHT22;11067;48.788;9.208;2023-06-26T06:26:15;25.70;99.90
21811;DHT22;11067;48.788;9.208;2023-06-26T06:28:40;25.70;99.90
21811;DHT22;11067;48.788;9.208;2023-06-26T06:31:06;25.40;99.90
21811;DHT22;11067;48.788;9.208;2023-06-26T06:33:32;26.50;99.90
21811;DHT22;11067;48.788;9.208;2023-06-26T06:43:15;26.50;99.90
21811;DHT22;11067;48.788;9.208;2023-06-26T06:45:41;26.40;99.90
21811;DHT22;11067;48.788;9.208;2023-06-26T06:48:07;26.20;99.90
21811;DHT22;11067;48.788;9.208;2023-06-26T06:55:24;26.40;99.90
21811;DHT22;11067;48.788;9.208;2023-06-26T06:57:51;26.50;99.90
21811;DHT22;11067;48.788;9.208;2023-06-26T08:40:12;26.40;99.90
21811;DHT22;11067;48.788;9.208;2023-06-26T08:42:38;30.40;93.80
21811;DHT22;11067;48.788;9.208;2023-06-26T08:45:03;30.30;92.70
21811;DHT22;11067;48.788;9.208;2023-06-26T08:47:30;29.80;93.30
21811;DHT22;11067;48.788;9.208;2023-06-26T08:50:07;29.90;93.40
21811;DHT22;11067;48.788;9.208;2023-06-26T08:52:41;30.10;93.00
21811;DHT22;11067;48.788;9.208;2023-06-26T08:55:10;30.00;93.10
21811;DHT22;11067;48.788;9.208;2023-06-26T08:57:37;29.90;92.30
21811;DHT22;11067;48.788;9.208;2023-06-26T09:00:04;29.60;92.80
21811;DHT22;11067;48.788;9.208;2023-06-26T09:02:30;30.50;92.00
21811;DHT22;11067;48.788;9.208;2023-06-26T09:04:57;30.80;90.90
21811;DHT22;11067;48.788;9.208;2023-06-26T09:07:23;30.30;90.80
21811;DHT22;11067;48.788;9.208;2023-06-26T09:09:48;30.00;91.70
21811;DHT22;11067;48.788;9.208;2023-06-26T09:12:14;29.90;91.30
21811;DHT22;11067;48.788;9.208;2023-06-26T09:14:39;30.10;91.00
21811;DHT22;11067;48.788;9.208;2023-06-26T09:17:05;29.80;91.70
21811;DHT22;11067;48.788;9.208;2023-06-26T09:19:30;30.00;91.50
21811;DHT22;11067;48.788;9.208;2023-06-26T09:21:57;30.00;91.60
21811;DHT22;11067;48.788;9.208;2023-06-26T09:24:22;30.40;91.60
21811;DHT22;11067;48.788;9.208;2023-06-26T09:26:48;30.40;90.10
21811;DHT22;11067;48.788;9.208;2023-06-26T09:29:15;30.40;88.70
21811;DHT22;11067;48.788;9.208;2023-06-26T09:31:40;30.60;88.40
21811;DHT22;11067;48.788;9.208;2023-06-26T09:34:06;30.20;89.20
21811;DHT22;11067;48.788;9.208;2023-06-26T09:36:33;30.20;88.30
21811;DHT22;11067;48.788;9.208;2023-06-26T09:39:06;30.20;90.40
21811;DHT22;11067;48.788;9.208;2023-06-26T09:41:36;29.90;90.80
21811;DHT22;11067;48.788;9.208;2023-06-26T09:44:03;30.30;90.10
21811;DHT22;11067;48.788;9.208;2023-06-26T09:46:30;30.50;88.70
21811;DHT22;11067;48.788;9.208;2023-06-26T09:49:07;30.70;86.70
21811;DHT22;11067;48.788;9.208;2023-06-26T09:51:37;30.90;88.20
21811;DHT22;11067;48.788;9.208;2023-06-26T09:54:03;31.20;85.60
21811;DHT22;11067;48.788;9.208;2023-06-26T09:56:30;31.50;81.70
21811;DHT22;11067;48.788;9.208;2023-06-26T09:58:56;31.10;83.10
21811;DHT22;11067;48.788;9.208;2023-06-26T10:01:23;30.20;86.70
21811;DHT22;11067;48.788;9.208;2023-06-26T10:03:49;30.40;87.40
21811;DHT22;11067;48.788;9.208;2023-06-26T10:08:51;30.70;89.00
21811;DHT22;11067;48.788;9.208;2023-06-26T10:11:21;31.00;87.50
21811;DHT22;11067;48.788;9.208;2023-06-26T10:13:50;30.30;90.20
21811;DHT22;11067;48.788;9.208;2023-06-26T10:16:23;30.70;90.10
21811;DHT22;11067;48.788;9.208;2023-06-26T10:18:53;30.30;91.00
21811;DHT22;11067;48.788;9.208;2023-06-26T10:21:20;30.50;91.40
21811;DHT22;11067;48.788;9.208;2023-06-26T10:23:47;30.30;92.60
21811;DHT22;11067;48.788;9.208;2023-06-26T10:26:14;30.50;93.40
21811;DHT22;11067;48.788;9.208;2023-06-26T10:28:41;30.20;93.30
21811;DHT22;11067;48.788;9.208;2023-06-26T10:31:09;30.10;93.40
21811;DHT22;11067;48.788;9.208;2023-06-26T10:33:35;30.30;94.30
21811;DHT22;11067;48.788;9.208;2023-06-26T10:36:18;30.30;94.50
21811;DHT22;11067;48.788;9.208;2023-06-26T10:39:14;30.20;95.50
21811;DHT22;11067;48.788;9.208;2023-06-26T10:41:40;30.20;95.80
21811;DHT22;11067;48.788;9.208;2023-06-26T17:33:38;30.30;96.00
21811;DHT22;11067;48.788;9.208;2023-06-26T17:36:04;27.40;51.60
21811;DHT22;11067;48.788;9.208;2023-06-26T17:38:30;27.30;51.30
21811;DHT22;11067;48.788;9.208;2023-06-26T17:40:56;27.20;52.80
21811;DHT22;11067;48.788;9.208;2023-06-26T17:43:22;27.20;52.80
21811;DHT22;11067;48.788;9.208;2023-06-26T17:45:48;27.50;53.50
21811;DHT22;11067;48.788;9.208;2023-06-26T17:48:13;27.30;52.90
21811;DHT22;11067;48.788;9.208;2023-06-26T17:50:39;27.50;53.00
21811;DHT22;11067;48.788;9.208;2023-06-26T17:53:04;27.20;52.50
21811;DHT22;11067;48.788;9.208;2023-06-26T17:55:31;27.30;52.90
21811;DHT22;11067;48.788;9.208;2023-06-26T17:57:57;27.50;52.70
21811;DHT22;11067;48.788;9.208;2023-06-26T18:00:23;27.00;52.80
21811;DHT22;11067;48.788;9.208;2023-06-26T18:02:48;26.90;52.20
